createdAt,value
2018-03-24T00:01:52.584Z,99.90
2018-03-24T00:04:18.757Z,99.90
2018-03-24T00:06:45.572Z,99.90
2018-03-24T00:09:12.469Z,99.90
2018-03-24T00:11:38.674Z,99.90
2018-03-24T00:14:05.559Z,99.90
2018-03-24T00:16:31.709Z,99.90
2018-03-24T00:18:57.788Z,99.90
2018-03-24T00:21:23.964Z,99.90
2018-03-24T00:23:50.048Z,99.90
2018-03-24T00:26:16.221Z,99.90
2018-03-24T00:28:42.404Z,99.90
2018-03-24T00:31:09.270Z,99.90
2018-03-24T00:33:36.502Z,99.90
2018-03-24T00:36:03.363Z,99.90
2018-03-24T00:38:30.332Z,99.90
2018-03-24T00:40:57.559Z,99.90
2018-03-24T00:43:23.583Z,99.90
2018-03-24T00:45:50.281Z,99.90
2018-03-24T00:48:17.501Z,99.90
2018-03-24T00:50:44.397Z,99.90
2018-03-24T00:53:10.575Z,99.90
2018-03-24T00:55:36.680Z,99.90
2018-03-24T00:58:02.824Z,99.90
2018-03-24T01:00:29.960Z,99.90
2018-03-24T01:02:56.334Z,99.90
2018-03-24T01:05:23.197Z,99.90
2018-03-24T01:07:49.756Z,99.90
2018-03-24T01:10:16.062Z,99.90
2018-03-24T01:12:43.042Z,99.90
2018-03-24T01:15:09.190Z,99.90
2018-03-24T01:17:35.266Z,99.90
2018-03-24T01:20:01.413Z,99.90
2018-03-24T01:22:28.269Z,99.90
2018-03-24T01:24:55.362Z,99.90
2018-03-24T01:27:21.504Z,99.90
2018-03-24T01:29:47.765Z,99.90
2018-03-24T01:32:13.889Z,99.90
2018-03-24T01:34:40.035Z,99.90
2018-03-24T01:37:06.968Z,99.90
2018-03-24T01:39:33.110Z,99.90
2018-03-24T01:42:00.047Z,99.90
2018-03-24T01:44:26.190Z,99.90
2018-03-24T01:46:53.067Z,99.90
2018-03-24T01:49:19.859Z,99.90
2018-03-24T01:51:45.950Z,99.90
2018-03-24T01:54:12.132Z,99.90
2018-03-24T01:56:38.330Z,99.90
2018-03-24T01:59:04.558Z,99.90
2018-03-24T02:01:30.804Z,99.90
2018-03-24T02:03:57.126Z,99.90
2018-03-24T02:06:23.260Z,99.90
2018-03-24T02:08:49.359Z,99.90
2018-03-24T02:11:16.293Z,99.90
2018-03-24T02:13:43.482Z,99.90
2018-03-24T02:16:09.729Z,99.90
2018-03-24T02:18:35.771Z,99.90
2018-03-24T02:21:05.826Z,99.90
2018-03-24T02:23:32.029Z,99.90
2018-03-24T02:26:05.316Z,99.90
2018-03-24T02:28:31.473Z,99.90
2018-03-24T02:30:57.675Z,99.90
2018-03-24T02:33:23.759Z,99.90
2018-03-24T02:35:49.969Z,99.90
2018-03-24T02:38:16.099Z,99.90
2018-03-24T02:40:42.429Z,99.90
2018-03-24T02:43:08.538Z,99.90
2018-03-24T02:45:34.970Z,99.90
2018-03-24T02:48:01.107Z,99.90
2018-03-24T02:50:27.209Z,99.90
2018-03-24T02:52:53.379Z,99.90
2018-03-24T02:55:20.436Z,99.90
2018-03-24T02:57:46.553Z,99.90
2018-03-24T03:00:13.286Z,99.90
2018-03-24T03:02:40.221Z,99.90
2018-03-24T03:05:07.056Z,99.90
2018-03-24T03:07:33.154Z,99.90
2018-03-24T03:09:59.410Z,99.90
2018-03-24T03:12:25.930Z,99.90
2018-03-24T03:14:52.092Z,99.90
2018-03-24T03:17:19.611Z,99.90
2018-03-24T03:19:45.669Z,99.90
2018-03-24T03:22:12.425Z,99.90
2018-03-24T03:24:38.523Z,99.90
2018-03-24T03:27:04.649Z,99.90
2018-03-24T03:29:30.773Z,99.90
2018-03-24T03:32:10.802Z,99.90
2018-03-24T03:34:37.134Z,99.90
2018-03-24T03:37:03.405Z,99.90
2018-03-24T03:39:29.514Z,99.90
2018-03-24T03:41:56.392Z,99.90
2018-03-24T03:44:22.426Z,99.90
2018-03-24T03:46:48.530Z,99.90
2018-03-24T03:49:14.619Z,99.90
2018-03-24T03:51:42.432Z,99.90
2018-03-24T03:54:08.572Z,99.90
2018-03-24T03:56:34.651Z,99.90
2018-03-24T03:59:00.846Z,99.90
2018-03-24T04:01:26.898Z,99.90
2018-03-24T04:03:53.763Z,99.90
2018-03-24T04:06:19.827Z,99.90
2018-03-24T04:08:45.872Z,99.90
2018-03-24T04:11:12.041Z,99.90
2018-03-24T04:13:38.168Z,99.90
2018-03-24T04:16:04.242Z,99.90
2018-03-24T04:18:30.546Z,99.90
2018-03-24T04:20:57.162Z,99.90
2018-03-24T04:23:24.094Z,99.90
2018-03-24T04:25:50.247Z,99.90
2018-03-24T04:28:17.287Z,99.90
2018-03-24T04:30:43.482Z,99.90
2018-03-24T04:33:10.146Z,99.90
2018-03-24T04:35:36.243Z,99.90
2018-03-24T04:38:03.182Z,99.90
2018-03-24T04:40:29.284Z,99.90
2018-03-24T04:42:55.365Z,99.90
2018-03-24T04:45:22.244Z,99.90
2018-03-24T04:47:48.390Z,99.90
2018-03-24T04:50:14.540Z,99.90
2018-03-24T04:52:40.554Z,99.90
2018-03-24T04:55:06.730Z,99.90
2018-03-24T04:57:33.777Z,99.90
2018-03-24T05:00:00.106Z,99.90
2018-03-24T05:02:26.394Z,99.90
2018-03-24T05:04:53.269Z,99.90
2018-03-24T05:07:19.407Z,99.90
2018-03-24T05:09:45.520Z,99.90
2018-03-24T05:12:11.699Z,99.90
2018-03-24T05:14:38.533Z,99.90
2018-03-24T05:17:05.002Z,99.90
2018-03-24T05:19:31.150Z,99.90
2018-03-24T05:21:57.282Z,99.90
2018-03-24T05:24:23.379Z,99.90
2018-03-24T05:26:49.438Z,99.90
2018-03-24T05:29:16.375Z,99.90
2018-03-24T05:31:42.762Z,99.90
2018-03-24T05:34:08.887Z,99.90
2018-03-24T05:36:35.174Z,99.90
2018-03-24T05:39:02.527Z,99.90
2018-03-24T05:41:28.644Z,99.90
2018-03-24T05:43:55.207Z,99.90
2018-03-24T05:46:22.204Z,99.90
2018-03-24T05:48:48.233Z,99.90
2018-03-24T05:51:14.347Z,99.90
2018-03-24T05:53:41.452Z,99.90
2018-03-24T05:56:07.771Z,99.90
2018-03-24T05:58:33.907Z,99.90
2018-03-24T06:01:00.087Z,99.90
2018-03-24T06:03:26.230Z,99.90
2018-03-24T06:05:53.205Z,99.90
2018-03-24T06:08:20.037Z,99.90
2018-03-24T06:10:46.140Z,99.90
2018-03-24T06:13:12.155Z,99.90
2018-03-24T06:15:38.948Z,99.90
2018-03-24T06:18:05.321Z,99.90
2018-03-24T06:20:32.440Z,99.90
2018-03-24T06:22:58.526Z,99.90
2018-03-24T06:25:24.656Z,99.90
2018-03-24T06:27:51.486Z,99.90
2018-03-24T06:30:17.648Z,99.90
2018-03-24T06:32:44.486Z,99.90
2018-03-24T06:35:11.717Z,99.90
2018-03-24T06:37:37.799Z,99.90
2018-03-24T06:40:03.939Z,99.90
2018-03-24T06:42:30.055Z,99.90
2018-03-24T06:44:56.260Z,99.90
2018-03-24T06:47:22.593Z,99.90
2018-03-24T06:49:48.702Z,99.90
2018-03-24T06:52:15.452Z,99.90
2018-03-24T06:54:41.626Z,99.90
2018-03-24T06:57:08.954Z,99.90
2018-03-24T06:59:35.044Z,99.90
2018-03-24T07:02:01.206Z,99.90
2018-03-24T07:04:27.469Z,99.90
2018-03-24T07:06:56.477Z,99.90
2018-03-24T07:09:23.352Z,99.90
2018-03-24T07:11:49.509Z,99.90
2018-03-24T07:14:15.633Z,99.90
2018-03-24T07:16:41.723Z,99.90
2018-03-24T07:19:08.626Z,99.90
2018-03-24T07:21:34.762Z,99.90
2018-03-24T07:24:00.946Z,99.90
2018-03-24T07:26:27.837Z,99.90
2018-03-24T07:28:54.046Z,99.90
2018-03-24T07:31:21.201Z,99.90
2018-03-24T07:33:48.260Z,99.90
2018-03-24T07:36:14.431Z,99.90
2018-03-24T07:38:41.041Z,99.90
2018-03-24T07:41:07.381Z,99.90
2018-03-24T07:43:33.485Z,99.90
2018-03-24T07:45:59.571Z,99.90
2018-03-24T07:48:26.552Z,99.90
2018-03-24T07:50:53.510Z,99.90
2018-03-24T07:53:21.387Z,99.90
2018-03-24T07:55:48.208Z,99.90
2018-03-24T07:58:14.385Z,99.90
2018-03-24T08:00:40.575Z,99.90
2018-03-24T08:03:06.783Z,99.90
2018-03-24T08:05:33.406Z,99.90
2018-03-24T08:07:59.663Z,99.90
2018-03-24T08:10:27.067Z,99.90
2018-03-24T08:12:53.199Z,99.90
2018-03-24T08:15:19.633Z,99.90
2018-03-24T08:17:45.862Z,99.90
2018-03-24T08:20:12.796Z,99.90
2018-03-24T08:22:39.688Z,99.90
2018-03-24T08:25:05.837Z,99.90
2018-03-24T08:27:32.065Z,99.90
2018-03-24T08:29:58.210Z,99.90
2018-03-24T08:32:24.819Z,99.90
2018-03-24T08:34:50.936Z,99.90
2018-03-24T08:37:17.812Z,99.90
2018-03-24T08:39:44.339Z,99.90
2018-03-24T08:42:10.924Z,99.90
2018-03-24T08:44:37.907Z,99.90
2018-03-24T08:47:05.432Z,99.90
2018-03-24T08:49:31.953Z,99.90
2018-03-24T08:51:58.906Z,99.90
2018-03-24T08:54:25.035Z,99.90
2018-03-24T08:56:51.137Z,99.90
2018-03-24T08:59:17.971Z,99.90
2018-03-24T09:01:45.330Z,99.90
2018-03-24T09:04:11.700Z,99.90
2018-03-24T09:06:37.862Z,99.90
2018-03-24T09:09:04.317Z,99.90
2018-03-24T09:11:30.592Z,99.90
2018-03-24T09:13:56.741Z,99.90
2018-03-24T09:16:24.733Z,99.90
2018-03-24T09:18:51.720Z,99.90
2018-03-24T09:21:17.875Z,99.90
2018-03-24T09:23:44.751Z,99.90
2018-03-24T09:26:10.872Z,99.90
2018-03-24T09:28:37.007Z,99.90
2018-03-24T09:31:03.145Z,99.90
2018-03-24T09:33:29.308Z,99.90
2018-03-24T09:35:57.006Z,99.90
2018-03-24T09:38:23.301Z,99.90
2018-03-24T09:40:49.732Z,99.90
2018-03-24T09:43:16.777Z,99.90
2018-03-24T09:45:43.972Z,99.90
2018-03-24T09:48:10.106Z,99.90
2018-03-24T09:50:36.334Z,99.90
2018-03-24T09:53:02.539Z,99.90
2018-03-24T09:55:28.688Z,99.90
2018-03-24T09:57:54.710Z,99.90
2018-03-24T10:00:20.743Z,99.90
2018-03-24T10:02:46.856Z,99.90
2018-03-24T10:05:13.156Z,99.90
2018-03-24T10:07:39.171Z,99.90
2018-03-24T10:10:06.094Z,99.90
2018-03-24T10:12:32.532Z,99.90
2018-03-24T10:14:58.731Z,99.90
2018-03-24T10:17:25.248Z,99.90
2018-03-24T10:19:51.383Z,99.90
2018-03-24T10:25:26.666Z,99.10
2018-03-24T10:27:53.322Z,97.70
2018-03-24T10:30:19.414Z,98.00
2018-03-24T10:32:45.548Z,97.30
2018-03-24T10:35:11.721Z,96.60
2018-03-24T10:37:44.500Z,96.90
2018-03-24T10:40:11.496Z,96.30
2018-03-24T10:42:38.462Z,95.20
2018-03-24T10:45:04.626Z,95.10
2018-03-24T10:47:30.797Z,95.20
2018-03-24T10:49:57.747Z,96.20
2018-03-24T10:52:24.267Z,96.20
2018-03-24T10:54:50.862Z,96.30
2018-03-24T10:57:17.112Z,95.80
2018-03-24T10:59:44.107Z,95.90
2018-03-24T11:02:10.212Z,95.30
2018-03-24T11:04:36.303Z,96.20
2018-03-24T11:07:02.604Z,96.50
2018-03-24T11:09:28.811Z,96.20
2018-03-24T11:11:55.150Z,96.10
2018-03-24T11:14:21.558Z,95.90
2018-03-24T11:16:48.830Z,95.60
2018-03-24T11:19:15.046Z,95.20
2018-03-24T11:21:42.508Z,94.70
2018-03-24T11:24:08.593Z,95.50
2018-03-24T11:26:34.780Z,94.50
2018-03-24T11:29:00.879Z,93.40
2018-03-24T11:31:27.757Z,95.30
2018-03-24T11:33:54.994Z,95.20
2018-03-24T11:36:21.156Z,94.00
2018-03-24T11:38:47.227Z,94.10
2018-03-24T11:41:13.432Z,94.70
2018-03-24T11:43:39.547Z,94.40
2018-03-24T11:46:06.637Z,94.40
2018-03-24T11:48:33.684Z,94.30
2018-03-24T11:51:00.454Z,95.10
2018-03-24T11:53:39.675Z,94.90
2018-03-24T11:56:05.867Z,94.80
2018-03-24T11:58:32.166Z,94.30
2018-03-24T12:00:58.345Z,93.50
2018-03-24T12:03:24.577Z,94.00
2018-03-24T12:05:51.773Z,95.10
2018-03-24T12:08:18.079Z,93.20
2018-03-24T12:10:44.243Z,92.20
2018-03-24T12:13:10.343Z,92.80
2018-03-24T12:15:37.315Z,93.80
2018-03-24T12:18:05.736Z,93.70
2018-03-24T12:20:33.547Z,94.70
2018-03-24T12:22:59.927Z,93.40
2018-03-24T12:25:26.006Z,94.10
2018-03-24T12:27:52.541Z,94.30
2018-03-24T12:30:20.634Z,94.20
2018-03-24T12:32:46.896Z,94.60
2018-03-24T12:35:13.120Z,95.60
2018-03-24T12:37:39.649Z,95.60
2018-03-24T12:40:05.892Z,95.60
2018-03-24T12:42:31.999Z,94.50
2018-03-24T12:44:58.249Z,93.80
2018-03-24T12:47:24.773Z,93.10
2018-03-24T12:49:51.078Z,93.60
2018-03-24T12:52:17.319Z,91.40
2018-03-24T12:54:44.188Z,90.60
2018-03-24T12:57:10.289Z,88.20
2018-03-24T12:59:38.097Z,80.80
2018-03-24T13:02:04.740Z,80.80
2018-03-24T13:04:30.848Z,71.60
2018-03-24T13:06:57.384Z,71.00
2018-03-24T13:09:24.425Z,67.40
2018-03-24T13:11:50.751Z,66.50
2018-03-24T13:14:17.602Z,63.50
2018-03-24T13:16:44.450Z,67.40
2018-03-24T13:19:11.346Z,70.90
2018-03-24T13:21:37.515Z,71.10
2018-03-24T13:24:03.871Z,67.80
2018-03-24T13:26:30.694Z,65.20
2018-03-24T13:28:56.907Z,64.90
2018-03-24T13:31:23.782Z,66.70
2018-03-24T13:33:50.423Z,60.40
2018-03-24T13:36:16.709Z,60.70
2018-03-24T13:38:42.997Z,58.50
2018-03-24T13:41:10.319Z,59.00
2018-03-24T13:43:36.679Z,53.80
2018-03-24T13:46:02.852Z,54.30
2018-03-24T13:48:29.777Z,50.20
2018-03-24T13:50:57.605Z,52.40
2018-03-24T13:53:24.755Z,52.30
2018-03-24T13:55:50.915Z,51.10
2018-03-24T13:58:17.047Z,53.20
2018-03-24T14:00:43.993Z,54.20
2018-03-24T14:03:10.157Z,54.20
2018-03-24T14:05:36.438Z,56.10
2018-03-24T14:08:03.544Z,57.20
2018-03-24T14:10:30.863Z,58.10
2018-03-24T14:12:57.416Z,58.10
2018-03-24T14:15:25.006Z,55.40
2018-03-24T14:17:52.124Z,50.30
2018-03-24T14:20:21.469Z,50.20
2018-03-24T14:22:50.306Z,49.60
2018-03-24T14:25:17.171Z,49.10
2018-03-24T14:27:43.322Z,47.60
2018-03-24T14:30:10.571Z,45.60
2018-03-24T14:32:37.305Z,44.50
2018-03-24T14:35:05.299Z,43.70
2018-03-24T14:37:32.478Z,44.20
2018-03-24T14:39:59.603Z,44.00
2018-03-24T14:42:27.707Z,44.80
2018-03-24T14:44:53.930Z,46.50
2018-03-24T14:47:21.450Z,45.50
2018-03-24T14:49:47.615Z,43.70
2018-03-24T14:52:14.095Z,43.00
2018-03-24T14:54:40.414Z,43.30
2018-03-24T14:57:08.189Z,40.40
2018-03-24T14:59:35.328Z,40.20
2018-03-24T15:02:02.345Z,39.60
2018-03-24T15:04:28.874Z,39.50
2018-03-24T15:06:55.109Z,38.60
2018-03-24T15:09:21.242Z,39.10
2018-03-24T15:11:47.904Z,40.00
2018-03-24T15:14:14.126Z,40.40
2018-03-24T15:16:40.356Z,40.40
2018-03-24T15:19:06.511Z,40.70
2018-03-24T15:21:32.698Z,39.40
2018-03-24T15:23:59.746Z,40.20
2018-03-24T15:26:25.988Z,40.80
2018-03-24T15:29:05.369Z,40.50
2018-03-24T15:31:46.058Z,39.70
2018-03-24T15:34:26.056Z,38.60
2018-03-24T15:36:52.294Z,38.60
2018-03-24T15:39:18.493Z,38.90
2018-03-24T15:41:45.136Z,39.60
2018-03-24T15:44:11.355Z,39.20
2018-03-24T15:46:37.612Z,38.40
2018-03-24T15:49:03.855Z,38.90
2018-03-24T15:51:30.051Z,38.10
2018-03-24T15:53:56.989Z,39.30
2018-03-24T15:56:24.007Z,38.20
2018-03-24T15:58:50.274Z,38.20
2018-03-24T16:01:16.503Z,38.20
2018-03-24T16:03:42.855Z,39.20
2018-03-24T16:06:09.084Z,38.30
2018-03-24T16:08:35.284Z,38.40
2018-03-24T16:11:01.545Z,39.30
2018-03-24T16:13:28.770Z,39.20
2018-03-24T16:15:54.891Z,39.20
2018-03-24T16:18:22.072Z,37.70
2018-03-24T16:20:48.711Z,37.40
2018-03-24T16:23:14.941Z,39.00
2018-03-24T16:25:41.057Z,39.10
2018-03-24T16:28:07.510Z,39.30
2018-03-24T16:30:34.509Z,38.60
2018-03-24T16:33:01.874Z,38.60
2018-03-24T16:35:28.751Z,38.70
2018-03-24T16:37:56.220Z,39.70
2018-03-24T16:40:24.657Z,39.70
2018-03-24T16:42:51.613Z,40.00
2018-03-24T16:45:18.961Z,39.50
2018-03-24T16:47:45.935Z,39.50
2018-03-24T16:50:13.036Z,40.60
2018-03-24T16:52:39.824Z,40.60
2018-03-24T16:55:07.132Z,40.70
2018-03-24T16:57:36.078Z,40.20
2018-03-24T17:00:03.850Z,39.70
2018-03-24T17:02:29.907Z,39.80
2018-03-24T17:04:56.498Z,40.30
2018-03-24T17:07:22.815Z,41.10
2018-03-24T17:09:49.008Z,41.80
2018-03-24T17:12:15.892Z,41.80
2018-03-24T17:14:42.444Z,41.80
2018-03-24T17:17:08.658Z,42.00
2018-03-24T17:19:34.902Z,41.50
2018-03-24T17:22:01.111Z,41.30
2018-03-24T17:24:27.417Z,41.40
2018-03-24T17:26:54.001Z,42.70
2018-03-24T17:29:20.371Z,45.20
2018-03-24T17:31:47.762Z,50.80
2018-03-24T17:34:15.141Z,53.60
2018-03-24T17:36:42.087Z,53.50
2018-03-24T17:39:08.390Z,54.90
2018-03-24T17:41:36.238Z,59.20
2018-03-24T17:44:02.833Z,58.60
2018-03-24T17:46:29.737Z,64.90
2018-03-24T17:48:56.658Z,64.90
2018-03-24T17:51:23.023Z,66.80
2018-03-24T17:53:51.068Z,67.30
2018-03-24T17:56:18.162Z,70.40
2018-03-24T17:58:44.554Z,72.40
2018-03-24T18:01:10.676Z,74.70
2018-03-24T18:03:37.823Z,77.30
2018-03-24T18:06:04.979Z,79.20
2018-03-24T18:08:31.131Z,82.20
2018-03-24T18:10:57.584Z,82.30
2018-03-24T18:13:24.004Z,83.90
2018-03-24T18:15:50.330Z,84.30
2018-03-24T18:18:16.522Z,85.00
2018-03-24T18:20:44.221Z,86.60
2018-03-24T18:23:10.346Z,86.60
2018-03-24T18:25:37.292Z,89.10
2018-03-24T18:28:04.776Z,89.80
2018-03-24T18:30:31.108Z,89.80
2018-03-24T18:32:57.374Z,90.30
2018-03-24T18:35:23.496Z,90.60
2018-03-24T18:37:49.623Z,91.50
2018-03-24T18:40:15.785Z,90.70
2018-03-24T18:42:42.442Z,91.40
2018-03-24T18:45:09.458Z,91.30
2018-03-24T18:47:36.176Z,91.80
2018-03-24T18:50:02.453Z,92.20
2018-03-24T18:52:28.594Z,92.10
2018-03-24T18:54:54.794Z,92.30
2018-03-24T18:57:20.963Z,92.10
2018-03-24T18:59:47.157Z,92.30
2018-03-24T19:02:13.709Z,92.50
2018-03-24T19:04:40.639Z,93.80
2018-03-24T19:07:06.845Z,93.80
2018-03-24T19:09:33.639Z,94.80
2018-03-24T19:11:59.809Z,94.80
2018-03-24T19:14:27.577Z,94.90
2018-03-24T19:16:55.021Z,96.30
2018-03-24T19:19:21.380Z,96.20
2018-03-24T19:21:48.324Z,96.00
2018-03-24T19:24:14.464Z,96.00
2018-03-24T19:26:41.286Z,97.00
2018-03-24T19:29:07.613Z,97.00
2018-03-24T19:31:35.210Z,97.20
2018-03-24T19:34:02.964Z,97.70
2018-03-24T19:36:29.431Z,97.70
2018-03-24T19:38:56.214Z,98.10
2018-03-24T19:41:22.302Z,98.10
2018-03-24T19:43:49.475Z,98.00
2018-03-24T19:46:16.493Z,98.10
2018-03-24T19:48:42.593Z,98.20
2018-03-24T19:51:09.785Z,98.50
2018-03-24T19:53:35.943Z,98.40
2018-03-24T19:56:02.063Z,98.70
2018-03-24T19:58:28.773Z,98.60
2018-03-24T20:00:54.913Z,98.40
2018-03-24T20:03:21.017Z,98.60
2018-03-24T20:05:47.830Z,98.80
2018-03-24T20:08:14.032Z,98.80
2018-03-24T20:10:40.154Z,99.40
2018-03-24T20:13:06.675Z,99.80
2018-03-24T20:15:33.503Z,99.80
2018-03-24T20:17:59.574Z,99.90
2018-03-24T20:20:26.051Z,99.90
2018-03-24T20:22:52.968Z,99.90
2018-03-24T20:25:19.062Z,99.90
2018-03-24T20:27:45.239Z,99.90
2018-03-24T20:30:11.417Z,99.90
2018-03-24T20:32:37.629Z,99.90
2018-03-24T20:35:04.597Z,99.90
2018-03-24T20:37:31.656Z,99.90
2018-03-24T20:39:57.760Z,99.90
2018-03-24T20:42:24.196Z,99.90
2018-03-24T20:44:50.223Z,99.90
2018-03-24T20:47:17.293Z,99.90
2018-03-24T20:49:43.407Z,99.90
2018-03-24T20:52:09.639Z,99.90
2018-03-24T20:54:36.281Z,99.90
2018-03-24T20:57:02.596Z,99.90
2018-03-24T20:59:28.747Z,99.90
2018-03-24T21:01:56.478Z,99.90
2018-03-24T21:04:22.600Z,99.90
2018-03-24T21:06:48.746Z,99.90
2018-03-24T21:09:14.898Z,99.90
2018-03-24T21:11:40.939Z,99.90
2018-03-24T21:14:08.173Z,99.90
2018-03-24T21:16:34.305Z,99.90
2018-03-24T21:19:00.523Z,99.90
2018-03-24T21:21:26.757Z,99.90
2018-03-24T21:23:53.142Z,99.90
2018-03-24T21:26:20.824Z,99.90
2018-03-24T21:28:47.855Z,99.90
2018-03-24T21:31:15.302Z,99.90
2018-03-24T21:33:42.057Z,99.90
2018-03-24T21:36:11.013Z,99.90
2018-03-24T21:38:37.380Z,99.90
2018-03-24T21:41:03.934Z,99.90
2018-03-24T21:43:30.833Z,99.90
2018-03-24T21:45:57.068Z,99.90
2018-03-24T21:48:23.480Z,99.90
2018-03-24T21:50:49.726Z,99.90
2018-03-24T21:53:15.861Z,99.90
2018-03-24T21:55:42.175Z,99.90
2018-03-24T21:58:08.382Z,99.90
2018-03-24T22:00:34.556Z,99.90
2018-03-24T22:03:00.679Z,99.90
2018-03-24T22:05:26.920Z,99.90
2018-03-24T22:07:53.803Z,99.90
2018-03-24T22:10:21.138Z,99.90
2018-03-24T22:12:47.292Z,99.90
2018-03-24T22:15:13.413Z,99.90
2018-03-24T22:17:39.591Z,99.90
2018-03-24T22:20:06.619Z,99.90
2018-03-24T22:22:32.752Z,99.90
2018-03-24T22:24:59.250Z,99.90
2018-03-24T22:27:25.742Z,99.90
2018-03-24T22:29:51.807Z,99.90
2018-03-24T22:32:18.591Z,99.90
2018-03-24T22:34:45.675Z,99.90
2018-03-24T22:37:11.726Z,99.90
2018-03-24T22:39:38.881Z,99.90
2018-03-24T22:42:05.919Z,99.90
2018-03-24T22:44:32.899Z,99.90
2018-03-24T22:46:59.818Z,99.90
2018-03-24T22:49:26.283Z,99.90
2018-03-24T22:51:53.204Z,99.90
2018-03-24T22:54:19.257Z,99.90
2018-03-24T22:56:46.280Z,99.90
2018-03-24T22:59:12.661Z,99.90
2018-03-24T23:01:39.536Z,99.90
2018-03-24T23:04:05.686Z,99.90
2018-03-24T23:06:31.720Z,99.90
2018-03-24T23:08:57.784Z,99.90
2018-03-24T23:11:24.403Z,99.90
2018-03-24T23:13:50.429Z,99.90
2018-03-24T23:16:16.732Z,99.90
2018-03-24T23:18:43.701Z,99.90
2018-03-24T23:21:09.815Z,99.90
2018-03-24T23:23:36.065Z,99.90
2018-03-24T23:26:02.373Z,99.90
2018-03-24T23:28:28.566Z,99.90
2018-03-24T23:30:54.646Z,99.90
2018-03-24T23:33:20.774Z,99.90
2018-03-24T23:35:46.902Z,99.90
2018-03-24T23:38:12.925Z,99.90
2018-03-24T23:40:39.055Z,99.90
2018-03-24T23:43:05.170Z,99.90
2018-03-24T23:45:31.959Z,99.90
2018-03-24T23:47:58.032Z,99.90
2018-03-24T23:50:24.139Z,99.90
2018-03-24T23:52:51.315Z,99.90
2018-03-24T23:55:17.440Z,99.90
2018-03-24T23:57:43.569Z,99.90
